sensor_id;sensor_type;location;lat;lon;timestamp;P1;durP1;ratioP1;P2;durP2;ratioP2
44456;SDS011;30159;49.316;8.558;2022-11-04T00:01:21;1.47;;;1.27;;
44456;SDS011;30159;49.316;8.558;2022-11-04T00:03:48;1.20;;;1.10;;
44456;SDS011;30159;49.316;8.558;2022-11-04T00:06:14;1.10;;;1.00;;
44456;SDS011;30159;49.316;8.558;2022-11-04T00:08:42;1.67;;;1.00;;
44456;SDS011;30159;49.316;8.558;2022-11-04T00:11:13;1.30;;;1.20;;
44456;SDS011;30159;49.316;8.558;2022-11-04T00:13:57;1.20;;;1.00;;
44456;SDS011;30159;49.316;8.558;2022-11-04T00:16:23;1.00;;;0.90;;
44456;SDS011;30159;49.316;8.558;2022-11-04T00:19:07;1.10;;;0.90;;
44456;SDS011;30159;49.316;8.558;2022-11-04T00:21:34;0.97;;;0.87;;
44456;SDS011;30159;49.316;8.558;2022-11-04T00:24:19;1.47;;;0.90;;
44456;SDS011;30159;49.316;8.558;2022-11-04T00:27:09;0.80;;;0.80;;
44456;SDS011;30159;49.316;8.558;2022-11-04T00:29:53;1.00;;;0.90;;
44456;SDS011;30159;49.316;8.558;2022-11-04T00:32:19;0.80;;;0.70;;
44456;SDS011;30159;49.316;8.558;2022-11-04T00:35:04;1.00;;;0.80;;
44456;SDS011;30159;49.316;8.558;2022-11-04T00:37:31;1.63;;;0.80;;
44456;SDS011;30159;49.316;8.558;2022-11-04T00:40:02;0.97;;;0.73;;
44456;SDS011;30159;49.316;8.558;2022-11-04T00:42:29;0.80;;;0.80;;
44456;SDS011;30159;49.316;8.558;2022-11-04T00:44:55;1.10;;;0.80;;
44456;SDS011;30159;49.316;8.558;2022-11-04T00:47:22;1.10;;;0.90;;
44456;SDS011;30159;49.316;8.558;2022-11-04T00:49:48;1.17;;;0.80;;
44456;SDS011;30159;49.316;8.558;2022-11-04T00:52:15;1.03;;;0.93;;
44456;SDS011;30159;49.316;8.558;2022-11-04T00:54:42;1.63;;;0.80;;
44456;SDS011;30159;49.316;8.558;2022-11-04T00:57:10;1.00;;;0.80;;
44456;SDS011;30159;49.316;8.558;2022-11-04T00:59:37;1.50;;;0.73;;
44456;SDS011;30159;49.316;8.558;2022-11-04T01:02:04;0.97;;;0.80;;
44456;SDS011;30159;49.316;8.558;2022-11-04T01:04:31;1.00;;;0.80;;
44456;SDS011;30159;49.316;8.558;2022-11-04T01:06:58;0.80;;;0.70;;
44456;SDS011;30159;49.316;8.558;2022-11-04T01:09:24;0.93;;;0.83;;
44456;SDS011;30159;49.316;8.558;2022-11-04T01:11:51;1.00;;;0.87;;
44456;SDS011;30159;49.316;8.558;2022-11-04T01:14:19;3.00;;;0.90;;
44456;SDS011;30159;49.316;8.558;2022-11-04T01:16:47;0.80;;;0.80;;
44456;SDS011;30159;49.316;8.558;2022-11-04T01:19:15;1.20;;;0.87;;
44456;SDS011;30159;49.316;8.558;2022-11-04T01:21:42;1.00;;;0.90;;
44456;SDS011;30159;49.316;8.558;2022-11-04T01:24:08;1.00;;;0.90;;
44456;SDS011;30159;49.316;8.558;2022-11-04T01:26:35;3.23;;;0.93;;
44456;SDS011;30159;49.316;8.558;2022-11-04T01:29:01;1.00;;;0.90;;
44456;SDS011;30159;49.316;8.558;2022-11-04T01:31:29;1.03;;;0.90;;
44456;SDS011;30159;49.316;8.558;2022-11-04T01:33:57;1.33;;;1.10;;
44456;SDS011;30159;49.316;8.558;2022-11-04T01:36:24;0.90;;;0.80;;
44456;SDS011;30159;49.316;8.558;2022-11-04T01:38:51;1.40;;;0.90;;
44456;SDS011;30159;49.316;8.558;2022-11-04T01:41:21;1.13;;;0.70;;
44456;SDS011;30159;49.316;8.558;2022-11-04T01:43:49;1.07;;;0.90;;
44456;SDS011;30159;49.316;8.558;2022-11-04T01:46:21;2.00;;;0.83;;
44456;SDS011;30159;49.316;8.558;2022-11-04T01:48:55;1.00;;;0.87;;
44456;SDS011;30159;49.316;8.558;2022-11-04T01:51:27;1.00;;;0.90;;
44456;SDS011;30159;49.316;8.558;2022-11-04T01:53:57;1.10;;;0.80;;
44456;SDS011;30159;49.316;8.558;2022-11-04T01:56:24;0.90;;;0.70;;
44456;SDS011;30159;49.316;8.558;2022-11-04T01:58:52;1.77;;;1.00;;
44456;SDS011;30159;49.316;8.558;2022-11-04T02:01:22;1.67;;;1.10;;
44456;SDS011;30159;49.316;8.558;2022-11-04T02:03:49;1.77;;;1.07;;
44456;SDS011;30159;49.316;8.558;2022-11-04T02:06:21;4.50;;;0.90;;
44456;SDS011;30159;49.316;8.558;2022-11-04T02:08:48;1.27;;;1.03;;
44456;SDS011;30159;49.316;8.558;2022-11-04T02:11:14;1.03;;;0.80;;
44456;SDS011;30159;49.316;8.558;2022-11-04T02:13:55;1.77;;;0.80;;
44456;SDS011;30159;49.316;8.558;2022-11-04T02:16:23;1.10;;;1.00;;
44456;SDS011;30159;49.316;8.558;2022-11-04T02:19:01;1.20;;;1.00;;
44456;SDS011;30159;49.316;8.558;2022-11-04T02:21:47;1.10;;;1.00;;
44456;SDS011;30159;49.316;8.558;2022-11-04T02:24:41;0.93;;;0.83;;
44456;SDS011;30159;49.316;8.558;2022-11-04T02:27:29;1.10;;;0.97;;
44456;SDS011;30159;49.316;8.558;2022-11-04T02:30:05;1.10;;;1.00;;
44456;SDS011;30159;49.316;8.558;2022-11-04T02:32:37;1.10;;;0.90;;
44456;SDS011;30159;49.316;8.558;2022-11-04T02:35:14;0.93;;;0.90;;
44456;SDS011;30159;49.316;8.558;2022-11-04T02:37:50;1.03;;;0.90;;
44456;SDS011;30159;49.316;8.558;2022-11-04T02:40:24;1.90;;;1.23;;
44456;SDS011;30159;49.316;8.558;2022-11-04T02:42:58;3.57;;;0.90;;
44456;SDS011;30159;49.316;8.558;2022-11-04T02:45:32;2.00;;;1.00;;
44456;SDS011;30159;49.316;8.558;2022-11-04T02:48:04;1.10;;;1.00;;
44456;SDS011;30159;49.316;8.558;2022-11-04T02:50:36;2.00;;;1.00;;
44456;SDS011;30159;49.316;8.558;2022-11-04T02:53:11;1.57;;;1.03;;
44456;SDS011;30159;49.316;8.558;2022-11-04T02:55:42;1.60;;;0.90;;
44456;SDS011;30159;49.316;8.558;2022-11-04T02:58:12;1.13;;;1.03;;
44456;SDS011;30159;49.316;8.558;2022-11-04T03:00:42;0.93;;;0.80;;
44456;SDS011;30159;49.316;8.558;2022-11-04T03:03:12;1.57;;;1.10;;
44456;SDS011;30159;49.316;8.558;2022-11-04T03:05:41;3.43;;;0.90;;
44456;SDS011;30159;49.316;8.558;2022-11-04T03:08:13;1.90;;;0.90;;
44456;SDS011;30159;49.316;8.558;2022-11-04T03:10:44;1.10;;;0.90;;
44456;SDS011;30159;49.316;8.558;2022-11-04T03:13:15;1.10;;;1.00;;
44456;SDS011;30159;49.316;8.558;2022-11-04T03:15:49;1.97;;;0.90;;
44456;SDS011;30159;49.316;8.558;2022-11-04T03:18:21;1.33;;;1.23;;
44456;SDS011;30159;49.316;8.558;2022-11-04T03:20:55;3.30;;;1.10;;
44456;SDS011;30159;49.316;8.558;2022-11-04T03:23:26;1.10;;;0.97;;
44456;SDS011;30159;49.316;8.558;2022-11-04T03:25:55;1.20;;;1.10;;
44456;SDS011;30159;49.316;8.558;2022-11-04T03:28:29;1.13;;;0.90;;
44456;SDS011;30159;49.316;8.558;2022-11-04T03:31:05;1.47;;;0.90;;
44456;SDS011;30159;49.316;8.558;2022-11-04T03:33:37;1.90;;;1.10;;
44456;SDS011;30159;49.316;8.558;2022-11-04T03:36:07;1.67;;;0.90;;
44456;SDS011;30159;49.316;8.558;2022-11-04T03:38:34;1.63;;;1.30;;
44456;SDS011;30159;49.316;8.558;2022-11-04T03:41:01;1.40;;;1.10;;
44456;SDS011;30159;49.316;8.558;2022-11-04T03:43:33;2.77;;;1.17;;
44456;SDS011;30159;49.316;8.558;2022-11-04T03:46:02;3.93;;;1.30;;
44456;SDS011;30159;49.316;8.558;2022-11-04T03:48:30;2.47;;;1.47;;
44456;SDS011;30159;49.316;8.558;2022-11-04T03:50:57;2.77;;;1.30;;
44456;SDS011;30159;49.316;8.558;2022-11-04T03:53:24;3.77;;;1.63;;
44456;SDS011;30159;49.316;8.558;2022-11-04T03:55:58;1.60;;;1.37;;
44456;SDS011;30159;49.316;8.558;2022-11-04T03:58:38;2.33;;;1.30;;
44456;SDS011;30159;49.316;8.558;2022-11-04T04:01:17;2.33;;;1.60;;
44456;SDS011;30159;49.316;8.558;2022-11-04T04:03:56;1.87;;;1.67;;
44456;SDS011;30159;49.316;8.558;2022-11-04T04:06:27;2.10;;;1.57;;
44456;SDS011;30159;49.316;8.558;2022-11-04T04:08:59;5.23;;;2.10;;
44456;SDS011;30159;49.316;8.558;2022-11-04T04:11:35;8.67;;;2.20;;
44456;SDS011;30159;49.316;8.558;2022-11-04T04:14:10;2.63;;;1.47;;
44456;SDS011;30159;49.316;8.558;2022-11-04T04:17:03;1.30;;;1.20;;
44456;SDS011;30159;49.316;8.558;2022-11-04T04:19:34;1.20;;;1.00;;
44456;SDS011;30159;49.316;8.558;2022-11-04T04:22:02;1.10;;;1.00;;
44456;SDS011;30159;49.316;8.558;2022-11-04T04:24:35;2.20;;;1.00;;
44456;SDS011;30159;49.316;8.558;2022-11-04T04:27:24;2.00;;;1.10;;
44456;SDS011;30159;49.316;8.558;2022-11-04T04:29:57;1.10;;;0.90;;
44456;SDS011;30159;49.316;8.558;2022-11-04T04:32:27;3.07;;;1.10;;
44456;SDS011;30159;49.316;8.558;2022-11-04T04:35:00;1.10;;;1.00;;
44456;SDS011;30159;49.316;8.558;2022-11-04T04:37:44;1.10;;;1.00;;
44456;SDS011;30159;49.316;8.558;2022-11-04T04:40:13;1.50;;;1.00;;
44456;SDS011;30159;49.316;8.558;2022-11-04T04:42:59;1.33;;;1.10;;
44456;SDS011;30159;49.316;8.558;2022-11-04T04:45:41;1.17;;;1.07;;
44456;SDS011;30159;49.316;8.558;2022-11-04T04:48:13;1.10;;;0.87;;
44456;SDS011;30159;49.316;8.558;2022-11-04T04:50:41;1.40;;;1.13;;
44456;SDS011;30159;49.316;8.558;2022-11-04T04:53:12;1.20;;;1.07;;
44456;SDS011;30159;49.316;8.558;2022-11-04T04:55:39;2.97;;;1.20;;
44456;SDS011;30159;49.316;8.558;2022-11-04T04:58:06;1.97;;;1.10;;
44456;SDS011;30159;49.316;8.558;2022-11-04T05:00:32;1.43;;;1.33;;
44456;SDS011;30159;49.316;8.558;2022-11-04T05:02:59;1.40;;;1.20;;
44456;SDS011;30159;49.316;8.558;2022-11-04T05:05:25;2.23;;;1.10;;
44456;SDS011;30159;49.316;8.558;2022-11-04T05:07:53;1.10;;;1.00;;
44456;SDS011;30159;49.316;8.558;2022-11-04T05:10:20;3.00;;;1.20;;
44456;SDS011;30159;49.316;8.558;2022-11-04T05:12:46;1.70;;;1.20;;
44456;SDS011;30159;49.316;8.558;2022-11-04T05:15:31;1.77;;;1.10;;
44456;SDS011;30159;49.316;8.558;2022-11-04T05:17:58;1.93;;;1.20;;
44456;SDS011;30159;49.316;8.558;2022-11-04T05:20:26;1.67;;;1.20;;
44456;SDS011;30159;49.316;8.558;2022-11-04T05:22:55;1.20;;;1.10;;
44456;SDS011;30159;49.316;8.558;2022-11-04T05:25:22;2.60;;;1.37;;
44456;SDS011;30159;49.316;8.558;2022-11-04T05:27:48;1.73;;;1.40;;
44456;SDS011;30159;49.316;8.558;2022-11-04T05:30:15;2.97;;;1.33;;
44456;SDS011;30159;49.316;8.558;2022-11-04T05:32:41;1.10;;;1.00;;
44456;SDS011;30159;49.316;8.558;2022-11-04T05:35:08;1.60;;;1.43;;
44456;SDS011;30159;49.316;8.558;2022-11-04T05:37:34;1.30;;;1.20;;
44456;SDS011;30159;49.316;8.558;2022-11-04T05:40:02;2.90;;;1.40;;
44456;SDS011;30159;49.316;8.558;2022-11-04T05:42:30;2.70;;;1.63;;
44456;SDS011;30159;49.316;8.558;2022-11-04T05:44:56;1.70;;;1.60;;
44456;SDS011;30159;49.316;8.558;2022-11-04T05:47:23;2.47;;;1.40;;
44456;SDS011;30159;49.316;8.558;2022-11-04T05:49:49;2.07;;;1.40;;
44456;SDS011;30159;49.316;8.558;2022-11-04T05:52:16;1.40;;;1.30;;
44456;SDS011;30159;49.316;8.558;2022-11-04T05:54:42;1.80;;;1.40;;
44456;SDS011;30159;49.316;8.558;2022-11-04T05:57:10;1.40;;;1.20;;
44456;SDS011;30159;49.316;8.558;2022-11-04T05:59:37;1.50;;;1.40;;
44456;SDS011;30159;49.316;8.558;2022-11-04T06:02:03;1.40;;;1.30;;
44456;SDS011;30159;49.316;8.558;2022-11-04T06:04:30;4.50;;;1.20;;
44456;SDS011;30159;49.316;8.558;2022-11-04T06:06:56;4.70;;;1.50;;
44456;SDS011;30159;49.316;8.558;2022-11-04T06:09:23;1.77;;;1.10;;
44456;SDS011;30159;49.316;8.558;2022-11-04T06:12:04;1.30;;;1.20;;
44456;SDS011;30159;49.316;8.558;2022-11-04T06:14:32;3.53;;;1.67;;
44456;SDS011;30159;49.316;8.558;2022-11-04T06:16:59;2.03;;;1.03;;
44456;SDS011;30159;49.316;8.558;2022-11-04T06:19:26;2.00;;;0.87;;
44456;SDS011;30159;49.316;8.558;2022-11-04T06:21:52;1.20;;;0.93;;
44456;SDS011;30159;49.316;8.558;2022-11-04T06:24:19;1.20;;;1.10;;
44456;SDS011;30159;49.316;8.558;2022-11-04T06:26:45;7.10;;;1.10;;
44456;SDS011;30159;49.316;8.558;2022-11-04T06:29:12;1.47;;;0.80;;
44456;SDS011;30159;49.316;8.558;2022-11-04T06:31:40;1.10;;;1.00;;
44456;SDS011;30159;49.316;8.558;2022-11-04T06:34:06;1.97;;;1.10;;
44456;SDS011;30159;49.316;8.558;2022-11-04T06:36:33;1.13;;;1.00;;
44456;SDS011;30159;49.316;8.558;2022-11-04T06:39:00;7.27;;;1.20;;
44456;SDS011;30159;49.316;8.558;2022-11-04T06:41:26;1.40;;;1.13;;
44456;SDS011;30159;49.316;8.558;2022-11-04T06:43:53;1.53;;;1.10;;
44456;SDS011;30159;49.316;8.558;2022-11-04T06:46:23;2.00;;;1.40;;
44456;SDS011;30159;49.316;8.558;2022-11-04T06:48:53;2.07;;;1.17;;
44456;SDS011;30159;49.316;8.558;2022-11-04T06:51:21;1.53;;;1.13;;
44456;SDS011;30159;49.316;8.558;2022-11-04T06:53:47;2.17;;;1.30;;
44456;SDS011;30159;49.316;8.558;2022-11-04T06:56:14;1.70;;;1.40;;
44456;SDS011;30159;49.316;8.558;2022-11-04T06:58:41;2.97;;;1.40;;
44456;SDS011;30159;49.316;8.558;2022-11-04T07:01:07;5.20;;;1.33;;
44456;SDS011;30159;49.316;8.558;2022-11-04T07:03:34;1.83;;;1.30;;
44456;SDS011;30159;49.316;8.558;2022-11-04T07:06:06;1.43;;;1.20;;
44456;SDS011;30159;49.316;8.558;2022-11-04T07:08:33;1.67;;;1.57;;
44456;SDS011;30159;49.316;8.558;2022-11-04T07:11:00;1.50;;;1.40;;
44456;SDS011;30159;49.316;8.558;2022-11-04T07:13:27;5.00;;;2.07;;
44456;SDS011;30159;49.316;8.558;2022-11-04T07:15:54;1.93;;;1.80;;
44456;SDS011;30159;49.316;8.558;2022-11-04T07:18:21;1.73;;;1.33;;
44456;SDS011;30159;49.316;8.558;2022-11-04T07:20:47;5.13;;;1.20;;
44456;SDS011;30159;49.316;8.558;2022-11-04T07:23:15;4.33;;;1.40;;
44456;SDS011;30159;49.316;8.558;2022-11-04T07:25:42;2.93;;;1.67;;
44456;SDS011;30159;49.316;8.558;2022-11-04T07:28:08;2.23;;;1.40;;
44456;SDS011;30159;49.316;8.558;2022-11-04T07:30:35;1.73;;;1.53;;
44456;SDS011;30159;49.316;8.558;2022-11-04T07:33:01;1.67;;;1.30;;
44456;SDS011;30159;49.316;8.558;2022-11-04T07:35:28;3.27;;;1.70;;
44456;SDS011;30159;49.316;8.558;2022-11-04T07:37:54;1.50;;;1.37;;
44456;SDS011;30159;49.316;8.558;2022-11-04T07:40:22;2.43;;;1.40;;
44456;SDS011;30159;49.316;8.558;2022-11-04T07:42:49;4.03;;;3.00;;
44456;SDS011;30159;49.316;8.558;2022-11-04T07:45:16;36.20;;;15.87;;
44456;SDS011;30159;49.316;8.558;2022-11-04T07:47:42;33.83;;;16.13;;
44456;SDS011;30159;49.316;8.558;2022-11-04T07:50:09;7.63;;;5.80;;
44456;SDS011;30159;49.316;8.558;2022-11-04T07:52:35;17.43;;;7.83;;
44456;SDS011;30159;49.316;8.558;2022-11-04T07:55:02;29.17;;;14.00;;
44456;SDS011;30159;49.316;8.558;2022-11-04T07:57:30;19.30;;;7.60;;
44456;SDS011;30159;49.316;8.558;2022-11-04T07:59:56;11.20;;;7.53;;
44456;SDS011;30159;49.316;8.558;2022-11-04T08:02:23;7.60;;;4.53;;
44456;SDS011;30159;49.316;8.558;2022-11-04T08:04:50;4.47;;;3.50;;
44456;SDS011;30159;49.316;8.558;2022-11-04T08:07:16;10.63;;;2.10;;
44456;SDS011;30159;49.316;8.558;2022-11-04T08:09:43;3.73;;;2.67;;
44456;SDS011;30159;49.316;8.558;2022-11-04T08:12:09;7.87;;;6.07;;
44456;SDS011;30159;49.316;8.558;2022-11-04T08:14:37;8.00;;;7.07;;
44456;SDS011;30159;49.316;8.558;2022-11-04T08:17:04;4.70;;;4.30;;
44456;SDS011;30159;49.316;8.558;2022-11-04T08:19:30;3.10;;;2.87;;
44456;SDS011;30159;49.316;8.558;2022-11-04T08:21:57;2.70;;;2.50;;
44456;SDS011;30159;49.316;8.558;2022-11-04T08:24:23;2.50;;;1.73;;
44456;SDS011;30159;49.316;8.558;2022-11-04T08:26:50;3.03;;;2.60;;
44456;SDS011;30159;49.316;8.558;2022-11-04T08:29:16;3.40;;;3.10;;
44456;SDS011;30159;49.316;8.558;2022-11-04T08:31:44;6.87;;;4.87;;
44456;SDS011;30159;49.316;8.558;2022-11-04T08:34:11;13.70;;;8.13;;
44456;SDS011;30159;49.316;8.558;2022-11-04T08:36:38;4.43;;;3.20;;
44456;SDS011;30159;49.316;8.558;2022-11-04T08:39:07;10.10;;;2.90;;
44456;SDS011;30159;49.316;8.558;2022-11-04T08:41:34;2.83;;;2.40;;
44456;SDS011;30159;49.316;8.558;2022-11-04T08:44:03;4.10;;;2.40;;
44456;SDS011;30159;49.316;8.558;2022-11-04T08:46:31;2.30;;;2.10;;
44456;SDS011;30159;49.316;8.558;2022-11-04T08:49:00;2.20;;;2.00;;
44456;SDS011;30159;49.316;8.558;2022-11-04T08:51:27;1.90;;;1.80;;
44456;SDS011;30159;49.316;8.558;2022-11-04T08:53:55;2.40;;;1.70;;
44456;SDS011;30159;49.316;8.558;2022-11-04T08:56:23;2.13;;;1.73;;
44456;SDS011;30159;49.316;8.558;2022-11-04T08:58:51;2.50;;;1.60;;
44456;SDS011;30159;49.316;8.558;2022-11-04T09:01:18;5.17;;;1.33;;
44456;SDS011;30159;49.316;8.558;2022-11-04T09:03:46;2.43;;;1.57;;
44456;SDS011;30159;49.316;8.558;2022-11-04T09:06:16;2.50;;;1.67;;
44456;SDS011;30159;49.316;8.558;2022-11-04T09:08:44;1.57;;;1.20;;
44456;SDS011;30159;49.316;8.558;2022-11-04T09:11:11;3.83;;;1.13;;
44456;SDS011;30159;49.316;8.558;2022-11-04T09:13:39;1.20;;;0.93;;
44456;SDS011;30159;49.316;8.558;2022-11-04T09:16:07;3.53;;;1.10;;
44456;SDS011;30159;49.316;8.558;2022-11-04T09:18:35;1.07;;;0.80;;
44456;SDS011;30159;49.316;8.558;2022-11-04T09:21:03;0.90;;;0.80;;
44456;SDS011;30159;49.316;8.558;2022-11-04T09:23:32;0.83;;;0.80;;
44456;SDS011;30159;49.316;8.558;2022-11-04T09:26:02;1.00;;;0.90;;
44456;SDS011;30159;49.316;8.558;2022-11-04T09:28:30;0.90;;;0.70;;
44456;SDS011;30159;49.316;8.558;2022-11-04T09:30:56;1.23;;;0.90;;
44456;SDS011;30159;49.316;8.558;2022-11-04T09:33:23;1.07;;;0.90;;
44456;SDS011;30159;49.316;8.558;2022-11-04T09:35:53;1.90;;;0.90;;
44456;SDS011;30159;49.316;8.558;2022-11-04T09:38:21;1.37;;;0.90;;
44456;SDS011;30159;49.316;8.558;2022-11-04T09:40:49;4.33;;;1.00;;
44456;SDS011;30159;49.316;8.558;2022-11-04T09:43:20;1.00;;;0.83;;
44456;SDS011;30159;49.316;8.558;2022-11-04T09:45:53;1.00;;;0.90;;
44456;SDS011;30159;49.316;8.558;2022-11-04T09:48:23;1.67;;;0.77;;
44456;SDS011;30159;49.316;8.558;2022-11-04T09:50:54;2.00;;;0.90;;
44456;SDS011;30159;49.316;8.558;2022-11-04T09:53:26;0.97;;;0.87;;
44456;SDS011;30159;49.316;8.558;2022-11-04T09:55:57;3.40;;;1.00;;
44456;SDS011;30159;49.316;8.558;2022-11-04T09:58:26;0.87;;;0.80;;
44456;SDS011;30159;49.316;8.558;2022-11-04T10:01:00;1.23;;;0.90;;
44456;SDS011;30159;49.316;8.558;2022-11-04T10:03:41;1.10;;;1.00;;
44456;SDS011;30159;49.316;8.558;2022-11-04T10:06:23;2.60;;;0.90;;
44456;SDS011;30159;49.316;8.558;2022-11-04T10:09:04;2.83;;;0.80;;
44456;SDS011;30159;49.316;8.558;2022-11-04T10:11:42;1.10;;;0.90;;
44456;SDS011;30159;49.316;8.558;2022-11-04T10:14:30;1.40;;;1.00;;
44456;SDS011;30159;49.316;8.558;2022-11-04T10:20:18;2.60;;;0.90;;
44456;SDS011;30159;49.316;8.558;2022-11-04T10:22:56;3.00;;;0.90;;
44456;SDS011;30159;49.316;8.558;2022-11-04T10:25:24;1.70;;;0.80;;
44456;SDS011;30159;49.316;8.558;2022-11-04T10:27:57;1.23;;;1.13;;
44456;SDS011;30159;49.316;8.558;2022-11-04T10:30:24;2.50;;;1.80;;
44456;SDS011;30159;49.316;8.558;2022-11-04T10:32:56;7.30;;;5.70;;
44456;SDS011;30159;49.316;8.558;2022-11-04T10:35:29;2.40;;;1.00;;
44456;SDS011;30159;49.316;8.558;2022-11-04T10:38:04;1.20;;;0.90;;
44456;SDS011;30159;49.316;8.558;2022-11-04T10:40:41;0.83;;;0.80;;
44456;SDS011;30159;49.316;8.558;2022-11-04T10:43:15;1.00;;;0.90;;
44456;SDS011;30159;49.316;8.558;2022-11-04T10:45:50;0.80;;;0.67;;
44456;SDS011;30159;49.316;8.558;2022-11-04T10:48:27;1.43;;;1.17;;
44456;SDS011;30159;49.316;8.558;2022-11-04T10:50:57;1.10;;;1.00;;
44456;SDS011;30159;49.316;8.558;2022-11-04T10:53:25;1.50;;;1.00;;
44456;SDS011;30159;49.316;8.558;2022-11-04T10:55:55;2.30;;;0.80;;
44456;SDS011;30159;49.316;8.558;2022-11-04T10:58:30;1.63;;;0.90;;
44456;SDS011;30159;49.316;8.558;2022-11-04T11:00:57;1.20;;;1.10;;
44456;SDS011;30159;49.316;8.558;2022-11-04T11:03:26;1.13;;;1.00;;
44456;SDS011;30159;49.316;8.558;2022-11-04T11:06:12;1.30;;;1.20;;
44456;SDS011;30159;49.316;8.558;2022-11-04T11:08:41;1.30;;;1.10;;
44456;SDS011;30159;49.316;8.558;2022-11-04T11:11:09;2.60;;;1.00;;
44456;SDS011;30159;49.316;8.558;2022-11-04T11:13:38;1.70;;;1.30;;
44456;SDS011;30159;49.316;8.558;2022-11-04T11:16:08;1.00;;;0.90;;
44456;SDS011;30159;49.316;8.558;2022-11-04T11:18:37;1.40;;;1.00;;
44456;SDS011;30159;49.316;8.558;2022-11-04T11:21:07;2.03;;;1.20;;
44456;SDS011;30159;49.316;8.558;2022-11-04T11:23:37;1.80;;;0.70;;
44456;SDS011;30159;49.316;8.558;2022-11-04T11:26:06;1.57;;;0.90;;
44456;SDS011;30159;49.316;8.558;2022-11-04T11:28:35;1.10;;;0.80;;
44456;SDS011;30159;49.316;8.558;2022-11-04T11:31:07;1.77;;;0.97;;
44456;SDS011;30159;49.316;8.558;2022-11-04T11:33:39;0.77;;;0.70;;
44456;SDS011;30159;49.316;8.558;2022-11-04T11:36:14;0.90;;;0.80;;
44456;SDS011;30159;49.316;8.558;2022-11-04T11:38:50;4.83;;;1.10;;
44456;SDS011;30159;49.316;8.558;2022-11-04T11:41:20;1.23;;;1.10;;
44456;SDS011;30159;49.316;8.558;2022-11-04T11:43:53;1.23;;;1.10;;
44456;SDS011;30159;49.316;8.558;2022-11-04T11:46:23;2.77;;;1.00;;
44456;SDS011;30159;49.316;8.558;2022-11-04T11:48:53;1.13;;;0.90;;
44456;SDS011;30159;49.316;8.558;2022-11-04T11:51:26;1.03;;;0.80;;
44456;SDS011;30159;49.316;8.558;2022-11-04T11:54:01;3.43;;;1.20;;
44456;SDS011;30159;49.316;8.558;2022-11-04T11:56:40;1.37;;;1.00;;
44456;SDS011;30159;49.316;8.558;2022-11-04T11:59:12;2.37;;;1.73;;
44456;SDS011;30159;49.316;8.558;2022-11-04T12:01:47;2.70;;;1.27;;
44456;SDS011;30159;49.316;8.558;2022-11-04T12:04:17;4.70;;;1.50;;
44456;SDS011;30159;49.316;8.558;2022-11-04T12:06:47;3.70;;;2.30;;
44456;SDS011;30159;49.316;8.558;2022-11-04T12:09:23;2.23;;;2.03;;
44456;SDS011;30159;49.316;8.558;2022-11-04T12:12:00;1.83;;;1.63;;
44456;SDS011;30159;49.316;8.558;2022-11-04T12:14:40;3.53;;;1.60;;
44456;SDS011;30159;49.316;8.558;2022-11-04T12:17:23;1.93;;;1.50;;
44456;SDS011;30159;49.316;8.558;2022-11-04T12:19:59;1.53;;;1.27;;
44456;SDS011;30159;49.316;8.558;2022-11-04T12:22:36;1.70;;;1.40;;
44456;SDS011;30159;49.316;8.558;2022-11-04T12:25:15;1.87;;;1.40;;
44456;SDS011;30159;49.316;8.558;2022-11-04T12:27:50;4.97;;;1.17;;
44456;SDS011;30159;49.316;8.558;2022-11-04T12:30:23;2.80;;;1.13;;
44456;SDS011;30159;49.316;8.558;2022-11-04T12:32:56;2.80;;;1.00;;
44456;SDS011;30159;49.316;8.558;2022-11-04T12:35:37;2.23;;;1.50;;
44456;SDS011;30159;49.316;8.558;2022-11-04T12:38:22;1.93;;;1.30;;
44456;SDS011;30159;49.316;8.558;2022-11-04T12:41:01;3.50;;;1.33;;
44456;SDS011;30159;49.316;8.558;2022-11-04T12:43:35;3.13;;;1.13;;
44456;SDS011;30159;49.316;8.558;2022-11-04T12:46:09;1.67;;;1.30;;
44456;SDS011;30159;49.316;8.558;2022-11-04T12:48:51;1.10;;;0.90;;
44456;SDS011;30159;49.316;8.558;2022-11-04T12:51:31;1.20;;;1.10;;
44456;SDS011;30159;49.316;8.558;2022-11-04T12:54:10;0.97;;;0.87;;
44456;SDS011;30159;49.316;8.558;2022-11-04T12:56:56;2.30;;;1.10;;
44456;SDS011;30159;49.316;8.558;2022-11-04T12:59:39;2.60;;;1.10;;
44456;SDS011;30159;49.316;8.558;2022-11-04T13:02:22;2.40;;;1.10;;
44456;SDS011;30159;49.316;8.558;2022-11-04T13:04:57;1.10;;;0.80;;
44456;SDS011;30159;49.316;8.558;2022-11-04T13:07:29;1.40;;;1.30;;
44456;SDS011;30159;49.316;8.558;2022-11-04T13:09:59;1.77;;;1.10;;
44456;SDS011;30159;49.316;8.558;2022-11-04T13:12:32;2.93;;;1.00;;
44456;SDS011;30159;49.316;8.558;2022-11-04T13:15:04;2.03;;;1.20;;
44456;SDS011;30159;49.316;8.558;2022-11-04T13:17:39;2.13;;;1.10;;
44456;SDS011;30159;49.316;8.558;2022-11-04T13:20:14;1.40;;;1.20;;
44456;SDS011;30159;49.316;8.558;2022-11-04T13:22:56;2.20;;;1.70;;
44456;SDS011;30159;49.316;8.558;2022-11-04T13:25:27;1.30;;;1.20;;
44456;SDS011;30159;49.316;8.558;2022-11-04T13:27:55;3.37;;;1.40;;
44456;SDS011;30159;49.316;8.558;2022-11-04T13:30:26;1.30;;;1.20;;
44456;SDS011;30159;49.316;8.558;2022-11-04T13:33:01;1.20;;;1.10;;
44456;SDS011;30159;49.316;8.558;2022-11-04T13:35:37;2.93;;;1.87;;
44456;SDS011;30159;49.316;8.558;2022-11-04T13:38:10;3.00;;;1.40;;
44456;SDS011;30159;49.316;8.558;2022-11-04T13:40:41;1.00;;;0.90;;
44456;SDS011;30159;49.316;8.558;2022-11-04T13:43:20;1.30;;;1.10;;
44456;SDS011;30159;49.316;8.558;2022-11-04T13:46:20;1.87;;;1.13;;
44456;SDS011;30159;49.316;8.558;2022-11-04T13:48:57;1.00;;;0.90;;
44456;SDS011;30159;49.316;8.558;2022-11-04T13:51:38;1.70;;;1.10;;
44456;SDS011;30159;49.316;8.558;2022-11-04T13:54:06;1.10;;;0.90;;
44456;SDS011;30159;49.316;8.558;2022-11-04T13:56:50;2.50;;;0.90;;
44456;SDS011;30159;49.316;8.558;2022-11-04T13:59:30;1.40;;;0.90;;
44456;SDS011;30159;49.316;8.558;2022-11-04T14:08:08;2.23;;;1.63;;
44456;SDS011;30159;49.316;8.558;2022-11-04T14:10:39;1.27;;;1.17;;
44456;SDS011;30159;49.316;8.558;2022-11-04T14:16:09;1.70;;;1.30;;
44456;SDS011;30159;49.316;8.558;2022-11-04T14:18:38;2.37;;;1.40;;
44456;SDS011;30159;49.316;8.558;2022-11-04T14:21:06;1.30;;;1.20;;
44456;SDS011;30159;49.316;8.558;2022-11-04T14:23:37;4.10;;;1.60;;
44456;SDS011;30159;49.316;8.558;2022-11-04T14:26:05;1.93;;;1.00;;
44456;SDS011;30159;49.316;8.558;2022-11-04T14:28:34;2.70;;;1.60;;
44456;SDS011;30159;49.316;8.558;2022-11-04T14:31:02;3.97;;;1.30;;
44456;SDS011;30159;49.316;8.558;2022-11-04T14:33:31;2.73;;;1.30;;
44456;SDS011;30159;49.316;8.558;2022-11-04T14:39:02;1.97;;;1.30;;
44456;SDS011;30159;49.316;8.558;2022-11-04T14:41:51;3.53;;;1.17;;
44456;SDS011;30159;49.316;8.558;2022-11-04T14:44:25;1.37;;;1.17;;
44456;SDS011;30159;49.316;8.558;2022-11-04T14:46:56;1.40;;;1.13;;
44456;SDS011;30159;49.316;8.558;2022-11-04T14:49:36;1.70;;;1.60;;
44456;SDS011;30159;49.316;8.558;2022-11-04T14:52:12;0.93;;;0.93;;
44456;SDS011;30159;49.316;8.558;2022-11-04T14:54:43;2.10;;;1.20;;
44456;SDS011;30159;49.316;8.558;2022-11-04T14:57:14;2.30;;;1.20;;
44456;SDS011;30159;49.316;8.558;2022-11-04T14:59:42;4.60;;;1.20;;
44456;SDS011;30159;49.316;8.558;2022-11-04T15:02:11;1.13;;;1.03;;
44456;SDS011;30159;49.316;8.558;2022-11-04T15:04:44;2.00;;;1.00;;
44456;SDS011;30159;49.316;8.558;2022-11-04T15:07:21;1.27;;;0.90;;
44456;SDS011;30159;49.316;8.558;2022-11-04T15:09:51;1.33;;;1.20;;
44456;SDS011;30159;49.316;8.558;2022-11-04T15:12:18;1.57;;;1.27;;
44456;SDS011;30159;49.316;8.558;2022-11-04T15:17:52;1.20;;;1.10;;
44456;SDS011;30159;49.316;8.558;2022-11-04T15:20:20;2.40;;;1.30;;
44456;SDS011;30159;49.316;8.558;2022-11-04T15:22:49;1.57;;;1.13;;
44456;SDS011;30159;49.316;8.558;2022-11-04T15:25:18;1.63;;;1.30;;
44456;SDS011;30159;49.316;8.558;2022-11-04T15:27:45;2.37;;;1.67;;
44456;SDS011;30159;49.316;8.558;2022-11-04T15:30:17;1.87;;;1.77;;